Time,TemperatureF,DewpointF,PressureIn,WindDirection,WindDirectionDegrees,WindSpeedMPH,WindSpeedGustMPH,Humidity,HourlyPrecipIn,Conditions,Clouds,dailyrainin,SoftwareType,DateUTC
2013-11-10 00:01:00,34.0,-57.4,30.22,WNW,292,17.7,17.7,1,0.00,,OVC,0.00,WeatherDisplay:10.37,2013-11-10 06:01:00,
2013-11-10 00:06:00,33.8,-57.5,30.22,WNW,292,11.4,13.8,1,0.00,,OVC,0.00,WeatherDisplay:10.37,2013-11-10 06:06:00,
2013-11-10 00:11:00,33.6,-57.7,30.23,WNW,292,14.0,16.1,1,0.00,,OVC,0.00,WeatherDisplay:10.37,2013-11-10 06:11:00,
2013-11-10 00:16:00,33.6,-57.7,30.22,WNW,292,18.5,18.5,1,0.00,,OVC,0.00,WeatherDisplay:10.37,2013-11-10 06:16:00,
2013-11-10 00:21:00,33.4,-57.8,30.23,North,0,14.3,14.3,1,0.00,,OVC,0.00,WeatherDisplay:10.37,2013-11-10 06:21:00,
2013-11-10 00:26:00,33.4,-57.8,30.23,WNW,292,15.0,15.0,1,0.00,,OVC,0.00,WeatherDisplay:10.37,2013-11-10 06:26:00,
2013-11-10 00:31:00,33.4,-57.8,30.23,WNW,292,13.9,15.0,1,0.00,,OVC,0.00,WeatherDisplay:10.37,2013-11-10 06:31:00,
2013-11-10 00:36:00,33.3,-57.9,30.23,WNW,292,14.0,17.3,1,0.00,,OVC,0.00,WeatherDisplay:10.37,2013-11-10 06:36:00,
2013-11-10 00:41:00,33.3,-57.9,30.23,WNW,292,11.2,13.8,1,0.00,,OVC,0.00,WeatherDisplay:10.37,2013-11-10 06:41:00,
2013-11-10 00:46:00,32.9,-58.1,30.23,WNW,292,19.2,19.2,1,0.00,,OVC,0.00,WeatherDisplay:10.37,2013-11-10 06:46:00,
2013-11-10 00:51:00,32.9,-58.1,30.23,North,0,16.3,17.3,1,0.00,,OVC,0.00,WeatherDisplay:10.37,2013-11-10 06:51:00,
2013-11-10 00:56:00,32.9,-58.1,30.23,North,0,11.6,13.8,1,0.00,,OVC,0.00,WeatherDisplay:10.37,2013-11-10 06:56:00,
2013-11-10 01:01:00,32.9,-58.1,30.23,North,0,15.0,18.4,1,0.00,,OVC,0.00,WeatherDisplay:10.37,2013-11-10 07:01:00,
2013-11-10 01:06:00,32.9,-58.1,30.23,WNW,292,15.0,15.0,1,0.00,,OVC,0.00,WeatherDisplay:10.37,2013-11-10 07:06:00,
2013-11-10 01:11:00,32.9,-58.1,30.23,North,0,13.5,13.5,1,0.00,,OVC,0.00,WeatherDisplay:10.37,2013-11-10 07:11:00,
2013-11-10 01:16:00,32.7,-58.2,30.23,WNW,292,13.0,13.0,1,0.00,,OVC,0.00,WeatherDisplay:10.37,2013-11-10 07:16:00,
2013-11-10 01:21:00,32.7,-58.2,30.23,WNW,292,18.5,18.5,1,0.00,,OVC,0.00,WeatherDisplay:10.37,2013-11-10 07:21:00,
2013-11-10 01:26:00,32.7,-58.2,30.23,North,0,11.8,16.1,1,0.00,,OVC,0.00,WeatherDisplay:10.37,2013-11-10 07:26:00,
2013-11-10 01:31:00,32.4,-58.5,30.24,WNW,292,12.1,19.6,1,0.00,,OVC,0.00,WeatherDisplay:10.37,2013-11-10 07:31:00,
2013-11-10 01:36:00,32.2,-58.6,30.24,WNW,292,12.5,15.0,1,0.00,,OVC,0.00,WeatherDisplay:10.37,2013-11-10 07:36:00,
2013-11-10 01:41:00,32.2,-58.6,30.24,North,0,14.3,17.3,1,0.00,,OVC,0.00,WeatherDisplay:10.37,2013-11-10 07:41:00,
2013-11-10 01:46:00,32.2,-58.6,30.24,WNW,292,13.5,15.0,1,0.00,,OVC,0.00,WeatherDisplay:10.37,2013-11-10 07:46:00,
2013-11-10 01:51:00,32.0,-58.7,30.24,North,0,13.5,16.1,1,0.00,,OVC,0.00,WeatherDisplay:10.37,2013-11-10 07:51:00,
2013-11-10 01:56:00,32.0,-58.7,30.25,WNW,292,12.1,17.3,1,0.00,,OVC,0.00,WeatherDisplay:10.37,2013-11-10 07:56:00,
2013-11-10 02:01:00,32.0,-58.7,30.25,WNW,292,19.4,19.4,1,0.00,,OVC,0.00,WeatherDisplay:10.37,2013-11-10 08:01:00,
2013-11-10 02:07:00,31.8,-58.8,30.25,WNW,292,17.3,17.3,1,0.00,,OVC,0.00,WeatherDisplay:10.37,2013-11-10 08:07:00,
2013-11-10 02:12:00,31.8,-58.8,30.25,WNW,292,16.1,16.1,1,0.00,,OVC,0.00,WeatherDisplay:10.37,2013-11-10 08:12:00,
2013-11-10 02:17:00,31.8,-58.8,30.25,NW,315,12.5,17.3,1,0.00,,OVC,0.00,WeatherDisplay:10.37,2013-11-10 08:17:00,
2013-11-10 02:22:00,31.6,-58.9,30.25,WNW,292,11.8,13.8,1,0.00,,OVC,0.00,WeatherDisplay:10.37,2013-11-10 08:22:00,
2013-11-10 02:27:00,31.6,-58.9,30.26,WNW,292,10.5,10.5,1,0.00,,OVC,0.00,WeatherDisplay:10.37,2013-11-10 08:27:00,
2013-11-10 02:32:00,31.5,-59.0,30.26,North,0,8.7,11.5,1,0.00,,OVC,0.00,WeatherDisplay:10.37,2013-11-10 08:32:00,
2013-11-10 02:37:00,31.3,-59.1,30.26,WNW,292,10.5,11.5,1,0.00,,OVC,0.00,WeatherDisplay:10.37,2013-11-10 08:37:00,
2013-11-10 02:42:00,31.3,-59.1,30.26,WNW,292,9.2,12.7,1,0.00,,OVC,0.00,WeatherDisplay:10.37,2013-11-10 08:42:00,
2013-11-10 02:47:00,31.1,-59.2,30.26,WNW,292,10.7,11.5,1,0.00,,OVC,0.00,WeatherDisplay:10.37,2013-11-10 08:47:00,
2013-11-10 02:52:00,31.3,-59.1,30.27,North,0,12.5,12.7,1,0.00,,OVC,0.00,WeatherDisplay:10.37,2013-11-10 08:52:00,
2013-11-10 02:57:00,31.5,-59.0,30.27,North,0,10.2,11.5,1,0.00,,OVC,0.00,WeatherDisplay:10.37,2013-11-10 08:57:00,
2013-11-10 03:02:00,31.8,-58.8,30.27,WNW,292,10.2,11.5,1,0.00,,OVC,0.00,WeatherDisplay:10.37,2013-11-10 09:02:00,
2013-11-10 03:07:00,32.0,-58.7,30.27,WNW,292,8.1,10.4,1,0.00,,OVC,0.00,WeatherDisplay:10.37,2013-11-10 09:07:00,
2013-11-10 03:12:00,32.2,-58.6,30.27,North,0,10.5,10.5,1,0.00,,OVC,0.00,WeatherDisplay:10.37,2013-11-10 09:12:00,
2013-11-10 03:17:00,32.5,-58.3,30.27,WNW,292,8.5,10.4,1,0.00,,OVC,0.00,WeatherDisplay:10.37,2013-11-10 09:17:00,
2013-11-10 03:22:00,32.7,-58.2,30.27,NW,315,14.0,15.0,1,0.00,,OVC,0.00,WeatherDisplay:10.37,2013-11-10 09:22:00,
2013-11-10 03:27:00,33.1,-58.0,30.27,WNW,292,11.2,12.7,1,0.00,,OVC,0.00,WeatherDisplay:10.37,2013-11-10 09:27:00,
2013-11-10 03:32:00,33.1,-58.0,30.27,WNW,292,9.2,10.4,1,0.00,,OVC,0.00,WeatherDisplay:10.37,2013-11-10 09:32:00,
2013-11-10 03:37:00,33.1,-58.0,30.27,WNW,292,9.2,9.2,1,0.00,,OVC,0.00,WeatherDisplay:10.37,2013-11-10 09:37:00,
2013-11-10 03:42:00,33.1,-58.0,30.27,WNW,292,9.2,10.4,1,0.00,,OVC,0.00,WeatherDisplay:10.37,2013-11-10 09:42:00,
2013-11-10 03:47:00,33.3,-57.9,30.27,WNW,292,7.6,10.4,1,0.00,,OVC,0.00,WeatherDisplay:10.37,2013-11-10 09:47:00,
2013-11-10 03:52:00,33.4,-57.8,30.27,North,0,8.5,11.5,1,0.00,,OVC,0.00,WeatherDisplay:10.37,2013-11-10 09:52:00,
2013-11-10 03:57:00,33.4,-57.8,30.28,North,0,8.1,11.5,1,0.00,,OVC,0.00,WeatherDisplay:10.37,2013-11-10 09:57:00,
2013-11-10 04:02:00,33.6,-57.7,30.28,WNW,292,8.5,8.5,1,0.00,,OVC,0.00,WeatherDisplay:10.37,2013-11-10 10:02:00,
2013-11-10 04:07:00,33.8,-57.5,30.28,WNW,292,9.9,11.5,1,0.00,,OVC,0.00,WeatherDisplay:10.37,2013-11-10 10:07:00,
2013-11-10 04:12:00,34.2,-57.3,30.28,North,0,11.4,11.4,1,0.00,,OVC,0.00,WeatherDisplay:10.37,2013-11-10 10:12:00,
2013-11-10 04:17:00,34.2,-57.3,30.28,WNW,292,9.9,10.4,1,0.00,,OVC,0.00,WeatherDisplay:10.37,2013-11-10 10:17:00,
2013-11-10 04:22:00,34.3,-57.2,30.29,North,0,9.4,9.4,1,0.00,,OVC,0.00,WeatherDisplay:10.37,2013-11-10 10:22:00,
2013-11-10 04:27:00,34.3,-57.2,30.29,WNW,292,7.8,9.2,1,0.00,,OVC,0.00,WeatherDisplay:10.37,2013-11-10 10:27:00,
2013-11-10 04:32:00,34.5,-57.1,30.29,North,0,9.7,9.7,1,0.00,,OVC,0.00,WeatherDisplay:10.37,2013-11-10 10:32:00,
2013-11-10 04:36:00,34.5,-57.1,30.29,WNW,292,7.6,8.1,1,0.00,,OVC,0.00,WeatherDisplay:10.37,2013-11-10 10:36:00,
2013-11-10 04:41:00,34.5,-57.1,30.29,WNW,292,9.7,10.4,1,0.00,,OVC,0.00,WeatherDisplay:10.37,2013-11-10 10:41:00,
2013-11-10 04:46:00,34.5,-57.1,30.29,WNW,292,10.2,10.2,1,0.00,,OVC,0.00,WeatherDisplay:10.37,2013-11-10 10:46:00,
2013-11-10 04:51:00,34.5,-57.1,30.29,North,0,11.2,11.2,1,0.00,,OVC,0.00,WeatherDisplay:10.37,2013-11-10 10:51:00,
2013-11-10 04:56:00,34.5,-57.1,30.29,NNW,338,7.6,7.6,1,0.00,,OVC,0.00,WeatherDisplay:10.37,2013-11-10 10:56:00,
2013-11-10 05:01:00,34.5,-57.1,30.29,WNW,292,7.8,8.1,1,0.00,,OVC,0.00,WeatherDisplay:10.37,2013-11-10 11:01:00,
2013-11-10 05:06:00,34.5,-57.1,30.30,WNW,292,5.2,5.8,1,0.00,,OVC,0.00,WeatherDisplay:10.37,2013-11-10 11:06:00,
2013-11-10 05:11:00,34.5,-57.1,30.30,WNW,292,6.4,6.9,1,0.00,,OVC,0.00,WeatherDisplay:10.37,2013-11-10 11:11:00,
2013-11-10 05:16:00,34.5,-57.1,30.30,WNW,292,8.5,9.2,1,0.00,,OVC,0.00,WeatherDisplay:10.37,2013-11-10 11:16:00,
2013-11-10 05:21:00,34.7,-57.0,30.30,North,0,6.2,6.2,1,0.00,,OVC,0.00,WeatherDisplay:10.37,2013-11-10 11:21:00,
2013-11-10 05:26:00,34.7,-57.0,30.30,WNW,292,8.7,9.2,1,0.00,,OVC,0.00,WeatherDisplay:10.37,2013-11-10 11:26:00,
2013-11-10 05:31:00,34.9,-56.9,30.30,WNW,292,5.9,10.4,1,0.00,,OVC,0.00,WeatherDisplay:10.37,2013-11-10 11:31:00,
2013-11-10 05:36:00,34.9,-56.9,30.30,North,0,6.9,8.1,1,0.00,,OVC,0.00,WeatherDisplay:10.37,2013-11-10 11:36:00,
2013-11-10 05:41:00,34.9,-56.9,30.30,North,0,8.5,9.2,1,0.00,,OVC,0.00,WeatherDisplay:10.37,2013-11-10 11:41:00,
2013-11-10 05:46:00,34.9,-56.9,30.30,North,0,6.9,8.1,1,0.00,,OVC,0.00,WeatherDisplay:10.37,2013-11-10 11:46:00,
2013-11-10 05:51:00,34.9,-56.9,30.31,North,0,6.2,6.9,1,0.00,,OVC,0.00,WeatherDisplay:10.37,2013-11-10 11:51:00,
2013-11-10 05:56:00,34.9,-56.9,30.31,North,0,9.2,11.5,1,0.00,,OVC,0.00,WeatherDisplay:10.37,2013-11-10 11:56:00,
2013-11-10 06:01:00,35.1,-56.8,30.31,WNW,292,7.6,7.6,1,0.00,,OVC,0.00,WeatherDisplay:10.37,2013-11-10 12:01:00,
2013-11-10 06:06:00,35.1,-56.8,30.32,North,0,5.4,6.9,1,0.00,,OVC,0.00,WeatherDisplay:10.37,2013-11-10 12:06:00,
2013-11-10 06:11:00,35.1,-56.8,30.32,NNW,338,8.1,8.1,1,0.00,,OVC,0.00,WeatherDisplay:10.37,2013-11-10 12:11:00,
2013-11-10 06:16:00,35.1,-56.8,30.32,WNW,292,6.2,6.2,1,0.00,,OVC,0.00,WeatherDisplay:10.37,2013-11-10 12:16:00,
2013-11-10 06:21:00,35.1,-56.8,30.32,North,0,5.9,5.9,1,0.00,,OVC,0.00,WeatherDisplay:10.37,2013-11-10 12:21:00,
2013-11-10 06:26:00,35.1,-56.8,30.32,North,0,4.0,4.6,1,0.00,,OVC,0.00,WeatherDisplay:10.37,2013-11-10 12:26:00,
2013-11-10 06:31:00,35.1,-56.8,30.32,WNW,292,6.9,6.9,1,0.00,,OVC,0.00,WeatherDisplay:10.37,2013-11-10 12:31:00,
2013-11-10 06:36:00,35.1,-56.8,30.33,North,0,6.4,8.1,1,0.00,,OVC,0.00,WeatherDisplay:10.37,2013-11-10 12:36:00,
2013-11-10 06:41:00,35.2,-56.6,30.33,North,0,9.0,9.2,1,0.00,,OVC,0.00,WeatherDisplay:10.37,2013-11-10 12:41:00,
2013-11-10 06:46:00,35.2,-56.6,30.33,North,0,4.9,5.8,1,0.00,,OVC,0.00,WeatherDisplay:10.37,2013-11-10 12:46:00,
2013-11-10 06:51:00,35.1,-56.8,30.33,North,0,4.3,6.9,1,0.00,,OVC,0.00,WeatherDisplay:10.37,2013-11-10 12:51:00,
2013-11-10 06:56:00,34.9,-56.9,30.33,NNW,338,4.9,5.8,1,0.00,,OVC,0.00,WeatherDisplay:10.37,2013-11-10 12:56:00,
2013-11-10 07:01:00,34.7,-57.0,30.33,North,0,4.7,5.8,1,0.00,,OVC,0.00,WeatherDisplay:10.37,2013-11-10 13:01:00,
2013-11-10 07:06:00,34.5,-57.1,30.33,WNW,292,5.4,5.4,1,0.00,,OVC,0.00,WeatherDisplay:10.37,2013-11-10 13:06:00,
2013-11-10 07:11:00,34.5,-57.1,30.34,North,0,4.0,4.6,1,0.00,,OVC,0.00,WeatherDisplay:10.37,2013-11-10 13:11:00,
2013-11-10 07:16:00,34.3,-57.2,30.34,North,0,5.4,5.4,1,0.00,,OVC,0.00,WeatherDisplay:10.37,2013-11-10 13:16:00,
2013-11-10 07:21:00,34.5,-57.1,30.34,North,0,6.4,6.9,1,0.00,,OVC,0.00,WeatherDisplay:10.37,2013-11-10 13:21:00,
2013-11-10 07:26:00,34.7,-57.0,30.34,North,0,5.4,5.8,1,0.00,,OVC,0.00,WeatherDisplay:10.37,2013-11-10 13:26:00,
2013-11-10 07:31:00,34.5,-57.1,30.34,North,0,4.7,4.7,1,0.00,,OVC,0.00,WeatherDisplay:10.37,2013-11-10 13:31:00,
2013-11-10 07:36:00,34.5,-57.1,30.34,North,0,5.4,5.8,1,0.00,,OVC,0.00,WeatherDisplay:10.37,2013-11-10 13:36:00,
2013-11-10 07:41:00,34.5,-57.1,30.34,WNW,292,4.5,4.6,1,0.00,,OVC,0.00,WeatherDisplay:10.37,2013-11-10 13:41:00,
2013-11-10 07:46:00,34.3,-57.2,30.35,North,0,3.6,4.6,1,0.00,,OVC,0.00,WeatherDisplay:10.37,2013-11-10 13:46:00,
2013-11-10 07:51:00,34.3,-57.2,30.36,WNW,292,3.3,3.5,1,0.00,,OVC,0.00,WeatherDisplay:10.37,2013-11-10 13:51:00,
2013-11-10 07:56:00,34.5,-57.1,30.36,WNW,292,5.4,5.8,1,0.00,,OVC,0.00,WeatherDisplay:10.37,2013-11-10 13:56:00,
2013-11-10 08:02:00,34.9,-56.9,30.35,WNW,292,4.3,4.6,1,0.00,,OVC,0.00,WeatherDisplay:10.37,2013-11-10 14:02:00,
2013-11-10 08:07:00,35.2,-56.6,30.35,WNW,292,3.3,3.5,1,0.00,,OVC,0.00,WeatherDisplay:10.37,2013-11-10 14:07:00,
2013-11-10 08:12:00,35.8,-56.3,30.35,WNW,292,2.9,3.5,1,0.00,,OVC,0.00,WeatherDisplay:10.37,2013-11-10 14:12:00,
2013-11-10 08:17:00,36.3,-56.0,30.35,NNW,338,3.1,3.5,1,0.00,,OVC,0.00,WeatherDisplay:10.37,2013-11-10 14:17:00,
2013-11-10 08:22:00,36.3,-56.0,30.35,WNW,292,5.2,5.8,1,0.00,,OVC,0.00,WeatherDisplay:10.37,2013-11-10 14:22:00,
2013-11-10 08:27:00,36.7,-55.7,30.35,WNW,292,2.4,2.4,1,0.00,,OVC,0.00,WeatherDisplay:10.37,2013-11-10 14:27:00,
2013-11-10 08:32:00,36.9,-55.6,30.36,North,0,5.4,5.4,1,0.00,,OVC,0.00,WeatherDisplay:10.37,2013-11-10 14:32:00,
2013-11-10 08:37:00,37.0,-55.5,30.36,WNW,292,2.4,2.4,1,0.00,,OVC,0.00,WeatherDisplay:10.37,2013-11-10 14:37:00,
2013-11-10 08:42:00,37.2,-55.4,30.36,North,0,4.0,4.6,1,0.00,,OVC,0.00,WeatherDisplay:10.37,2013-11-10 14:42:00,
2013-11-10 08:47:00,37.4,-55.3,30.36,North,0,5.4,5.8,1,0.00,,OVC,0.00,WeatherDisplay:10.37,2013-11-10 14:47:00,
2013-11-10 08:52:00,37.6,-55.2,30.37,WNW,292,2.6,5.8,1,0.00,,OVC,0.00,WeatherDisplay:10.37,2013-11-10 14:52:00,
2013-11-10 08:57:00,37.6,-55.2,30.36,WNW,292,3.1,3.5,1,0.00,,OVC,0.00,WeatherDisplay:10.37,2013-11-10 14:57:00,
2013-11-10 09:02:00,37.6,-55.2,30.36,NNW,338,3.3,5.8,1,0.00,,OVC,0.00,WeatherDisplay:10.37,2013-11-10 15:02:00,
2013-11-10 09:07:00,37.8,-55.1,30.36,WNW,292,2.6,5.8,1,0.00,,OVC,0.00,WeatherDisplay:10.37,2013-11-10 15:07:00,
2013-11-10 09:12:00,37.9,-55.0,30.36,North,0,1.6,2.3,1,0.00,,OVC,0.00,WeatherDisplay:10.37,2013-11-10 15:12:00,
2013-11-10 09:17:00,37.9,-20.9,30.35,North,0,7.4,7.4,7,0.00,,OVC,0.00,WeatherDisplay:10.37,2013-11-10 15:17:00,
2013-11-10 09:22:00,38.3,-23.6,30.35,NNW,338,3.3,8.1,6,0.00,,OVC,0.00,WeatherDisplay:10.37,2013-11-10 15:22:00,
2013-11-10 09:27:00,38.5,-23.4,30.35,WNW,292,0.5,2.3,6,0.00,,OVC,0.00,WeatherDisplay:10.37,2013-11-10 15:27:00,
2013-11-10 09:32:00,38.5,-15.6,30.35,North,0,1.6,3.5,9,0.00,,OVC,0.00,WeatherDisplay:10.37,2013-11-10 15:32:00,
2013-11-10 09:37:00,38.7,-15.5,30.36,NNW,338,2.0,2.3,9,0.00,,OVC,0.00,WeatherDisplay:10.37,2013-11-10 15:37:00,
2013-11-10 09:42:00,38.7,-11.5,30.36,NNW,338,1.8,2.3,11,0.00,,OVC,0.00,WeatherDisplay:10.37,2013-11-10 15:42:00,
2013-11-10 09:47:00,38.7,-6.5,30.36,WNW,292,4.3,4.3,14,0.00,,OVC,0.00,WeatherDisplay:10.37,2013-11-10 15:47:00,
2013-11-10 09:52:00,38.8,-3.6,30.36,WNW,292,2.6,3.5,16,0.00,,OVC,0.00,WeatherDisplay:10.37,2013-11-10 15:52:00,
2013-11-10 09:57:00,39.0,-3.5,30.36,NNW,338,2.0,2.3,16,0.00,,OVC,0.00,WeatherDisplay:10.37,2013-11-10 15:57:00,
2013-11-10 10:02:00,39.2,-3.3,30.36,NNW,338,1.2,1.2,16,0.00,,OVC,0.00,WeatherDisplay:10.37,2013-11-10 16:02:00,
2013-11-10 10:07:00,39.6,-1.8,30.36,NNW,338,0.2,4.6,17,0.00,,OVC,0.00,WeatherDisplay:10.37,2013-11-10 16:07:00,
2013-11-10 10:12:00,40.1,-0.1,30.36,NW,315,0.9,2.3,18,0.00,,OVC,0.00,WeatherDisplay:10.37,2013-11-10 16:12:00,
2013-11-10 10:17:00,40.3,5.4,30.36,WNW,292,3.3,3.5,23,0.00,,OVC,0.00,WeatherDisplay:10.37,2013-11-10 16:17:00,
2013-11-10 10:22:00,40.5,5.5,30.36,West,270,2.9,2.9,23,0.00,,OVC,0.00,WeatherDisplay:10.37,2013-11-10 16:22:00,
2013-11-10 10:27:00,40.6,8.4,30.36,NW,315,3.3,3.3,26,0.00,,OVC,0.00,WeatherDisplay:10.37,2013-11-10 16:27:00,
2013-11-10 10:32:00,40.6,10.8,30.36,West,270,1.8,4.6,29,0.00,,OVC,0.00,WeatherDisplay:10.37,2013-11-10 16:32:00,
2013-11-10 10:37:00,41.2,7.1,30.35,West,270,1.6,3.5,24,0.00,,OVC,0.00,WeatherDisplay:10.37,2013-11-10 16:37:00,
2013-11-10 10:42:00,41.4,14.4,30.35,West,270,4.7,6.9,33,0.00,,OVC,0.00,WeatherDisplay:10.37,2013-11-10 16:42:00,
2013-11-10 10:47:00,41.5,15.2,30.35,WNW,292,5.6,5.6,34,0.00,,OVC,0.00,WeatherDisplay:10.37,2013-11-10 16:47:00,
2013-11-10 10:52:00,41.7,16.7,30.35,SSW,202,2.6,5.8,36,0.00,,OVC,0.00,WeatherDisplay:10.37,2013-11-10 16:52:00,
2013-11-10 10:57:00,41.7,16.7,30.34,West,270,2.0,2.3,36,0.00,,OVC,0.00,WeatherDisplay:10.37,2013-11-10 16:57:00,
2013-11-10 11:02:00,42.1,16.4,30.35,WNW,292,3.3,6.9,35,0.00,,OVC,0.00,WeatherDisplay:10.37,2013-11-10 17:02:00,
2013-11-10 11:07:00,42.1,19.5,30.35,West,270,6.9,6.9,40,0.00,,OVC,0.00,WeatherDisplay:10.37,2013-11-10 17:07:00,
2013-11-10 11:12:00,42.3,19.6,30.34,WNW,292,4.3,8.1,40,0.00,,OVC,0.00,WeatherDisplay:10.37,2013-11-10 17:12:00,
2013-11-10 11:17:00,42.3,18.4,30.34,WNW,292,1.8,3.5,38,0.00,,OVC,0.00,WeatherDisplay:10.37,2013-11-10 17:17:00,
2013-11-10 11:22:00,42.8,17.7,30.34,SSW,202,4.5,5.8,36,0.00,,OVC,0.00,WeatherDisplay:10.37,2013-11-10 17:22:00,
2013-11-10 11:27:00,43.0,20.9,30.33,SSW,202,4.0,4.6,41,0.00,,OVC,0.00,WeatherDisplay:10.37,2013-11-10 17:27:00,
2013-11-10 11:32:00,43.2,23.2,30.34,SSW,202,3.3,6.9,45,0.00,,OVC,0.00,WeatherDisplay:10.37,2013-11-10 17:32:00,
2013-11-10 11:37:00,43.2,22.7,30.34,West,270,3.8,3.8,44,0.00,,OVC,0.00,WeatherDisplay:10.37,2013-11-10 17:37:00,
2013-11-10 11:42:00,43.3,23.4,30.34,West,270,5.4,6.9,45,0.00,,OVC,0.00,WeatherDisplay:10.37,2013-11-10 17:42:00,
2013-11-10 11:47:00,43.3,23.9,30.33,West,270,8.3,9.2,46,0.00,,OVC,0.00,WeatherDisplay:10.37,2013-11-10 17:47:00,
2013-11-10 11:52:00,43.3,23.9,30.33,West,270,8.1,8.1,46,0.00,,OVC,0.00,WeatherDisplay:10.37,2013-11-10 17:52:00,
2013-11-10 11:57:00,43.3,23.9,30.33,WNW,292,2.4,5.8,46,0.00,,OVC,0.00,WeatherDisplay:10.37,2013-11-10 17:57:00,
2013-11-10 12:02:00,43.5,24.1,30.33,West,270,5.6,8.1,46,0.00,,OVC,0.00,WeatherDisplay:10.37,2013-11-10 18:02:00,
2013-11-10 12:07:00,43.7,23.7,30.33,SSW,202,2.4,8.1,45,0.00,,OVC,0.00,WeatherDisplay:10.37,2013-11-10 18:07:00,
2013-11-10 12:12:00,44.2,25.3,30.32,West,270,7.8,7.8,47,0.00,,OVC,0.00,WeatherDisplay:10.37,2013-11-10 18:12:00,
2013-11-10 12:17:00,44.2,25.8,30.32,West,270,4.7,4.7,48,0.00,,OVC,0.00,WeatherDisplay:10.37,2013-11-10 18:17:00,
2013-11-10 12:22:00,44.6,25.1,30.32,SSW,202,3.1,4.6,46,0.00,,OVC,0.00,WeatherDisplay:10.37,2013-11-10 18:22:00,
2013-11-10 12:27:00,44.4,26.4,30.31,SW,225,9.7,9.7,49,0.00,,OVC,0.00,WeatherDisplay:10.37,2013-11-10 18:27:00,
2013-11-10 12:32:00,44.4,26.4,30.31,SSW,202,3.8,5.8,49,0.00,,OVC,0.00,WeatherDisplay:10.37,2013-11-10 18:32:00,
2013-11-10 12:37:00,44.6,27.1,30.31,SSW,202,4.9,5.8,50,0.00,,OVC,0.00,WeatherDisplay:10.37,2013-11-10 18:37:00,
2013-11-10 12:42:00,44.6,26.6,30.31,West,270,10.0,10.0,49,0.00,,OVC,0.00,WeatherDisplay:10.37,2013-11-10 18:42:00,
2013-11-10 12:48:00,44.6,27.1,30.30,West,270,8.5,9.2,50,0.00,,OVC,0.00,WeatherDisplay:10.37,2013-11-10 18:48:00,
2013-11-10 12:53:00,44.6,27.1,30.30,WSW,248,7.4,7.4,50,0.00,,OVC,0.00,WeatherDisplay:10.37,2013-11-10 18:53:00,
2013-11-10 12:58:00,44.6,27.1,30.31,SSW,202,4.7,11.5,50,0.00,,OVC,0.00,WeatherDisplay:10.37,2013-11-10 18:58:00,
2013-11-10 13:03:00,44.4,26.9,30.30,SSW,202,7.4,7.4,50,0.00,,OVC,0.00,WeatherDisplay:10.37,2013-11-10 19:03:00,
2013-11-10 13:08:00,44.2,26.8,30.30,West,270,3.8,4.6,50,0.00,,OVC,0.00,WeatherDisplay:10.37,2013-11-10 19:08:00,
2013-11-10 13:13:00,44.2,26.8,30.30,SSW,202,6.4,8.1,50,0.00,,OVC,0.00,WeatherDisplay:10.37,2013-11-10 19:13:00,
2013-11-10 13:18:00,44.2,26.3,30.30,SSW,202,3.6,10.4,49,0.00,,OVC,0.00,WeatherDisplay:10.37,2013-11-10 19:18:00,
2013-11-10 13:23:00,44.4,25.9,30.29,West,270,7.4,7.4,48,0.00,,OVC,0.00,WeatherDisplay:10.37,2013-11-10 19:23:00,
2013-11-10 13:28:00,44.8,27.3,30.29,WSW,248,7.1,9.2,50,0.00,,OVC,0.00,WeatherDisplay:10.37,2013-11-10 19:28:00,
2013-11-10 13:33:00,45.0,27.9,30.29,SSW,202,9.2,9.2,51,0.00,,OVC,0.00,WeatherDisplay:10.37,2013-11-10 19:33:00,
2013-11-10 13:38:00,45.1,28.1,30.29,West,270,9.9,10.4,51,0.00,,OVC,0.00,WeatherDisplay:10.37,2013-11-10 19:38:00,
2013-11-10 13:43:00,45.0,27.9,30.29,WSW,248,12.1,12.1,51,0.00,,OVC,0.00,WeatherDisplay:10.37,2013-11-10 19:43:00,
2013-11-10 13:48:00,45.3,28.7,30.29,SSW,202,8.5,8.5,52,0.00,,OVC,0.00,WeatherDisplay:10.37,2013-11-10 19:48:00,
2013-11-10 13:53:00,45.3,28.2,30.29,West,270,10.2,10.2,51,0.00,,OVC,0.00,WeatherDisplay:10.37,2013-11-10 19:53:00,
2013-11-10 13:58:00,45.1,28.1,30.29,SSW,202,4.9,10.4,51,0.00,,OVC,0.00,WeatherDisplay:10.37,2013-11-10 19:58:00,
2013-11-10 14:03:00,44.4,27.4,30.28,West,270,5.4,5.8,51,0.00,,OVC,0.00,WeatherDisplay:10.37,2013-11-10 20:03:00,
2013-11-10 14:08:00,44.2,27.2,30.28,West,270,9.0,9.0,51,0.00,,OVC,0.00,WeatherDisplay:10.37,2013-11-10 20:08:00,
2013-11-10 14:13:00,44.2,27.2,30.28,West,270,9.7,9.7,51,0.00,,OVC,0.00,WeatherDisplay:10.37,2013-11-10 20:13:00,
2013-11-10 14:18:00,44.1,27.1,30.28,West,270,7.6,8.1,51,0.00,,OVC,0.00,WeatherDisplay:10.37,2013-11-10 20:18:00,
2013-11-10 14:23:00,43.9,26.9,30.28,SSW,202,7.6,10.4,51,0.00,,OVC,0.00,WeatherDisplay:10.37,2013-11-10 20:23:00,
2013-11-10 14:28:00,43.7,26.7,30.28,West,270,9.4,11.5,51,0.00,,OVC,0.00,WeatherDisplay:10.37,2013-11-10 20:28:00,
2013-11-10 14:33:00,43.5,27.0,30.28,West,270,9.9,12.7,52,0.00,,OVC,0.00,WeatherDisplay:10.37,2013-11-10 20:33:00,
2013-11-10 14:38:00,43.5,26.6,30.28,SSW,202,9.9,9.9,51,0.00,,OVC,0.00,WeatherDisplay:10.37,2013-11-10 20:38:00,
2013-11-10 14:43:00,43.3,26.4,30.28,West,270,7.1,7.1,51,0.00,,OVC,0.00,WeatherDisplay:10.37,2013-11-10 20:43:00,
2013-11-10 14:48:00,43.3,25.9,30.28,West,270,5.2,8.1,50,0.00,,OVC,0.00,WeatherDisplay:10.37,2013-11-10 20:48:00,
2013-11-10 14:54:00,43.3,25.4,30.27,West,270,7.6,7.6,49,0.00,,OVC,0.00,WeatherDisplay:10.37,2013-11-10 20:54:00,
2013-11-10 14:59:00,43.3,25.4,30.27,SSW,202,7.1,8.1,49,0.00,,OVC,0.00,WeatherDisplay:10.37,2013-11-10 20:59:00,
2013-11-10 15:04:00,43.2,25.3,30.28,West,270,6.9,8.1,49,0.00,,OVC,0.00,WeatherDisplay:10.37,2013-11-10 21:04:00,
2013-11-10 15:09:00,43.0,25.6,30.27,West,270,7.8,7.8,50,0.00,,OVC,0.00,WeatherDisplay:10.37,2013-11-10 21:09:00,
2013-11-10 15:14:00,42.8,24.9,30.27,SSW,202,7.1,9.2,49,0.00,,OVC,0.00,WeatherDisplay:10.37,2013-11-10 21:14:00,
2013-11-10 15:19:00,42.8,24.9,30.27,West,270,5.6,8.1,49,0.00,,OVC,0.00,WeatherDisplay:10.37,2013-11-10 21:19:00,
2013-11-10 15:24:00,42.8,23.9,30.27,West,270,8.1,8.1,47,0.00,,OVC,0.00,WeatherDisplay:10.37,2013-11-10 21:24:00,
2013-11-10 15:29:00,42.6,23.3,30.28,SSW,202,10.5,10.5,46,0.00,,OVC,0.00,WeatherDisplay:10.37,2013-11-10 21:29:00,
2013-11-10 15:34:00,42.4,23.6,30.28,West,270,9.7,9.7,47,0.00,,OVC,0.00,WeatherDisplay:10.37,2013-11-10 21:34:00,
2013-11-10 15:39:00,42.3,22.9,30.27,SSW,202,7.8,8.1,46,0.00,,OVC,0.00,WeatherDisplay:10.37,2013-11-10 21:39:00,
2013-11-10 15:44:00,42.1,22.8,30.27,West,270,6.9,8.1,46,0.00,,OVC,0.00,WeatherDisplay:10.37,2013-11-10 21:44:00,
2013-11-10 15:49:00,42.1,22.2,30.26,SSW,202,6.4,8.1,45,0.00,,OVC,0.00,WeatherDisplay:10.37,2013-11-10 21:49:00,
2013-11-10 15:54:00,41.9,21.5,30.26,West,270,7.4,7.4,44,0.00,,OVC,0.00,WeatherDisplay:10.37,2013-11-10 21:54:00,
2013-11-10 15:59:00,41.7,20.8,30.26,SSW,202,5.2,5.2,43,0.00,,OVC,0.00,WeatherDisplay:10.37,2013-11-10 21:59:00,
2013-11-10 16:04:00,41.5,19.6,30.26,SSW,202,6.4,9.2,41,0.00,,OVC,0.00,WeatherDisplay:10.37,2013-11-10 22:04:00,
2013-11-10 16:09:00,41.4,19.4,30.26,SSW,202,5.2,8.1,41,0.00,,OVC,0.00,WeatherDisplay:10.37,2013-11-10 22:09:00,
2013-11-10 16:14:00,41.4,19.4,30.26,SW,225,3.8,8.1,41,0.00,,OVC,0.00,WeatherDisplay:10.37,2013-11-10 22:14:00,
2013-11-10 16:19:00,41.2,18.7,30.26,SSW,202,6.0,8.1,40,0.00,,OVC,0.00,WeatherDisplay:10.37,2013-11-10 22:19:00,
2013-11-10 16:24:00,41.2,18.1,30.26,SSW,202,6.2,6.2,39,0.00,,OVC,0.00,WeatherDisplay:10.37,2013-11-10 22:24:00,
2013-11-10 16:29:00,41.2,17.5,30.25,SSW,202,6.4,6.9,38,0.00,CLR,OVC,0.00,WeatherDisplay:10.37,2013-11-10 22:29:00,
2013-11-10 16:34:00,41.0,16.7,30.26,West,270,6.2,6.2,37,0.00,CLR,OVC,0.00,WeatherDisplay:10.37,2013-11-10 22:34:00,
2013-11-10 16:39:00,41.0,16.7,30.26,West,270,4.0,5.8,37,0.00,CLR,OVC,0.00,WeatherDisplay:10.37,2013-11-10 22:39:00,
2013-11-10 16:44:00,41.0,16.7,30.26,West,270,4.3,5.8,37,0.00,CLR,OVC,0.00,WeatherDisplay:10.37,2013-11-10 22:44:00,
2013-11-10 16:49:00,41.0,16.0,30.26,West,270,3.8,3.8,36,0.00,CLR,OVC,0.00,WeatherDisplay:10.37,2013-11-10 22:49:00,
2013-11-10 16:54:00,40.8,14.6,30.25,SSW,202,6.2,6.9,34,0.00,CLR,OVC,0.00,WeatherDisplay:10.37,2013-11-10 22:54:00,
2013-11-10 16:59:00,40.6,13.0,30.25,SSW,202,5.9,6.9,32,0.00,CLR,OVC,0.00,WeatherDisplay:10.37,2013-11-10 22:59:00,
2013-11-10 17:04:00,40.6,11.6,30.25,West,270,5.4,5.8,30,0.00,CLR,OVC,0.00,WeatherDisplay:10.37,2013-11-10 23:04:00,
2013-11-10 17:09:00,40.6,11.6,30.25,SSW,202,3.8,4.6,30,0.00,CLR,OVC,0.00,WeatherDisplay:10.37,2013-11-10 23:09:00,
2013-11-10 17:14:00,40.6,10.0,30.24,SSW,202,6.9,6.9,28,0.00,CLR,OVC,0.00,WeatherDisplay:10.37,2013-11-10 23:14:00,
2013-11-10 17:19:00,40.5,9.9,30.24,SW,225,5.4,5.4,28,0.00,CLR,OVC,0.00,WeatherDisplay:10.37,2013-11-10 23:19:00,
2013-11-10 17:24:00,40.5,9.9,30.24,West,270,4.3,4.6,28,0.00,CLR,OVC,0.00,WeatherDisplay:10.37,2013-11-10 23:24:00,
2013-11-10 17:29:00,40.5,8.2,30.24,SSW,202,3.3,3.3,26,0.00,CLR,OVC,0.00,WeatherDisplay:10.37,2013-11-10 23:29:00,
2013-11-10 17:34:00,40.5,7.3,30.24,SSW,202,4.0,4.6,25,0.00,CLR,OVC,0.00,WeatherDisplay:10.37,2013-11-10 23:34:00,
2013-11-10 17:39:00,40.3,7.2,30.24,SSW,202,2.6,5.8,25,0.00,CLR,OVC,0.00,WeatherDisplay:10.37,2013-11-10 23:39:00,
2013-11-10 17:44:00,40.3,8.1,30.24,SSW,202,3.6,3.6,26,0.00,CLR,OVC,0.00,WeatherDisplay:10.37,2013-11-10 23:44:00,
2013-11-10 17:49:00,40.3,5.4,30.24,SSW,202,4.0,4.0,23,0.00,CLR,OVC,0.00,WeatherDisplay:10.37,2013-11-10 23:49:00,
2013-11-10 17:54:00,40.1,2.2,30.23,SW,225,4.5,4.6,20,0.00,CLR,OVC,0.00,WeatherDisplay:10.37,2013-11-10 23:54:00,
2013-11-10 17:59:00,40.1,-0.1,30.23,South,180,3.8,4.6,18,0.00,CLR,OVC,0.00,WeatherDisplay:10.37,2013-11-10 23:59:00,
2013-11-10 18:04:00,40.1,-1.3,30.23,SSW,202,4.5,4.5,17,0.00,CLR,OVC,0.00,WeatherDisplay:10.37,2013-11-11 00:04:00,
2013-11-10 18:09:00,40.1,-1.3,30.23,SSW,202,4.0,4.6,17,0.00,CLR,OVC,0.00,WeatherDisplay:10.37,2013-11-11 00:09:00,
2013-11-10 18:14:00,39.9,-8.7,30.22,SSW,202,3.8,5.8,12,0.00,CLR,OVC,0.00,WeatherDisplay:10.37,2013-11-11 00:14:00,
2013-11-10 18:19:00,39.9,-14.5,30.22,SSW,202,5.6,5.8,9,0.00,CLR,OVC,0.00,WeatherDisplay:10.37,2013-11-11 00:19:00,
2013-11-10 18:24:00,39.9,-19.4,30.22,SSW,202,5.4,5.8,7,0.00,CLR,OVC,0.00,WeatherDisplay:10.37,2013-11-11 00:24:00,
2013-11-10 18:29:00,39.9,-25.8,30.22,South,180,5.6,5.6,5,0.00,CLR,OVC,0.00,WeatherDisplay:10.37,2013-11-11 00:29:00,
2013-11-10 18:34:00,39.7,-53.8,30.22,SSW,202,3.1,4.6,1,0.00,CLR,OVC,0.00,WeatherDisplay:10.37,2013-11-11 00:34:00,
2013-11-10 18:39:00,39.6,-53.9,30.21,South,180,6.0,6.0,1,0.00,CLR,OVC,0.00,WeatherDisplay:10.37,2013-11-11 00:39:00,
2013-11-10 18:44:00,39.4,-54.1,30.21,SSW,202,4.0,4.6,1,0.00,CLR,OVC,0.00,WeatherDisplay:10.37,2013-11-11 00:44:00,
2013-11-10 18:49:00,39.2,-54.2,30.21,SSW,202,4.5,4.6,1,0.00,CLR,OVC,0.00,WeatherDisplay:10.37,2013-11-11 00:49:00,
2013-11-10 18:54:00,38.8,-54.4,30.21,SSW,202,4.9,4.9,1,0.00,CLR,OVC,0.00,WeatherDisplay:10.37,2013-11-11 00:54:00,
2013-11-10 18:59:00,38.5,-54.6,30.21,SSW,202,4.0,5.8,1,0.00,CLR,OVC,0.00,WeatherDisplay:10.37,2013-11-11 00:59:00,
2013-11-10 19:04:00,38.3,-54.7,30.21,SSW,202,5.9,5.9,1,0.00,CLR,OVC,0.00,WeatherDisplay:10.37,2013-11-11 01:04:00,
2013-11-10 19:09:00,38.1,-54.8,30.20,South,180,5.4,5.8,1,0.00,CLR,OVC,0.00,WeatherDisplay:10.37,2013-11-11 01:09:00,
2013-11-10 19:14:00,37.8,-55.1,30.20,South,180,4.9,5.8,1,0.00,CLR,OVC,0.00,WeatherDisplay:10.37,2013-11-11 01:14:00,
2013-11-10 19:19:00,37.6,-55.2,30.20,South,180,5.4,5.4,1,0.00,CLR,OVC,0.00,WeatherDisplay:10.37,2013-11-11 01:19:00,
2013-11-10 19:24:00,37.4,-55.3,30.21,South,180,5.4,5.8,1,0.00,CLR,OVC,0.00,WeatherDisplay:10.37,2013-11-11 01:24:00,
2013-11-10 19:29:00,37.4,-55.3,30.20,South,180,4.3,4.6,1,0.00,CLR,OVC,0.00,WeatherDisplay:10.37,2013-11-11 01:29:00,
2013-11-10 19:34:00,37.2,-55.4,30.20,South,180,5.4,5.4,1,0.00,CLR,OVC,0.00,WeatherDisplay:10.37,2013-11-11 01:34:00,
2013-11-10 19:39:00,37.2,-55.4,30.20,South,180,5.6,5.8,1,0.00,CLR,OVC,0.00,WeatherDisplay:10.37,2013-11-11 01:39:00,
2013-11-10 19:44:00,37.0,-55.5,30.20,South,180,5.4,5.8,1,0.00,CLR,OVC,0.00,WeatherDisplay:10.37,2013-11-11 01:44:00,
2013-11-10 19:49:00,36.7,-55.7,30.20,South,180,5.9,5.9,1,0.00,CLR,OVC,0.00,WeatherDisplay:10.37,2013-11-11 01:49:00,
2013-11-10 19:54:00,36.3,-56.0,30.20,South,180,4.9,5.8,1,0.00,CLR,OVC,0.00,WeatherDisplay:10.37,2013-11-11 01:54:00,
2013-11-10 19:59:00,36.3,-56.0,30.19,SSE,158,4.7,5.8,1,0.00,CLR,OVC,0.00,WeatherDisplay:10.37,2013-11-11 01:59:00,
2013-11-10 20:04:00,36.0,-56.2,30.19,ESE,112,4.7,4.7,1,0.00,CLR,OVC,0.00,WeatherDisplay:10.37,2013-11-11 02:04:00,
2013-11-10 20:09:00,36.1,-56.1,30.19,South,180,4.3,4.6,1,0.00,CLR,OVC,0.00,WeatherDisplay:10.37,2013-11-11 02:09:00,
2013-11-10 20:14:00,36.1,-56.1,30.19,South,180,5.4,5.8,1,0.00,CLR,OVC,0.00,WeatherDisplay:10.37,2013-11-11 02:14:00,
2013-11-10 20:19:00,36.1,-56.1,30.19,South,180,4.7,5.8,1,0.00,CLR,OVC,0.00,WeatherDisplay:10.37,2013-11-11 02:19:00,
2013-11-10 20:24:00,36.1,-56.1,30.18,SSW,202,5.4,5.4,1,0.00,CLR,OVC,0.00,WeatherDisplay:10.37,2013-11-11 02:24:00,
2013-11-10 20:29:00,36.1,-56.1,30.18,South,180,5.4,5.4,1,0.00,CLR,OVC,0.00,WeatherDisplay:10.37,2013-11-11 02:29:00,
2013-11-10 20:34:00,36.0,-56.2,30.18,South,180,5.9,5.9,1,0.00,CLR,OVC,0.00,WeatherDisplay:10.37,2013-11-11 02:34:00,
2013-11-10 20:39:00,35.8,-56.3,30.17,South,180,5.2,5.8,1,0.00,CLR,OVC,0.00,WeatherDisplay:10.37,2013-11-11 02:39:00,
2013-11-10 20:44:00,36.0,-56.2,30.17,South,180,5.6,5.8,1,0.00,CLR,OVC,0.00,WeatherDisplay:10.37,2013-11-11 02:44:00,
2013-11-10 20:50:00,36.0,-56.2,30.17,SSW,202,4.3,4.6,1,0.00,CLR,OVC,0.00,WeatherDisplay:10.37,2013-11-11 02:50:00,
2013-11-10 20:55:00,36.3,-56.0,30.17,South,180,5.4,5.4,1,0.00,CLR,OVC,0.00,WeatherDisplay:10.37,2013-11-11 02:55:00,
2013-11-10 21:00:00,36.5,-55.9,30.17,South,180,4.0,5.8,1,0.00,CLR,OVC,0.00,WeatherDisplay:10.37,2013-11-11 03:00:00,
2013-11-10 21:05:00,36.9,-55.6,30.17,South,180,5.9,5.9,1,0.00,CLR,OVC,0.00,WeatherDisplay:10.37,2013-11-11 03:05:00,
2013-11-10 21:10:00,37.2,-55.4,30.17,South,180,5.2,6.9,1,0.00,CLR,OVC,0.00,WeatherDisplay:10.37,2013-11-11 03:10:00,
2013-11-10 21:15:00,37.6,-55.2,30.17,South,180,6.0,6.0,1,0.00,CLR,OVC,0.00,WeatherDisplay:10.37,2013-11-11 03:15:00,
2013-11-10 21:20:00,37.8,-55.1,30.17,South,180,7.6,8.1,1,0.00,CLR,OVC,0.00,WeatherDisplay:10.37,2013-11-11 03:20:00,
2013-11-10 21:25:00,38.1,-54.8,30.17,South,180,7.6,7.6,1,0.00,CLR,OVC,0.00,WeatherDisplay:10.37,2013-11-11 03:25:00,
2013-11-10 21:30:00,38.5,-54.6,30.17,South,180,5.6,8.1,1,0.00,CLR,OVC,0.00,WeatherDisplay:10.37,2013-11-11 03:30:00,
2013-11-10 21:35:00,38.5,-54.6,30.17,South,180,6.9,9.2,1,0.00,CLR,OVC,0.00,WeatherDisplay:10.37,2013-11-11 03:35:00,
2013-11-10 21:40:00,38.7,-54.5,30.17,South,180,7.4,7.4,1,0.00,CLR,OVC,0.00,WeatherDisplay:10.37,2013-11-11 03:40:00,
2013-11-10 21:45:00,38.8,-54.4,30.17,SSW,202,5.2,5.2,1,0.00,CLR,OVC,0.00,WeatherDisplay:10.37,2013-11-11 03:45:00,
2013-11-10 21:50:00,38.8,-54.4,30.17,SSW,202,3.1,5.8,1,0.00,CLR,OVC,0.00,WeatherDisplay:10.37,2013-11-11 03:50:00,
2013-11-10 21:55:00,39.2,-54.2,30.17,SSW,202,5.2,5.2,1,0.00,CLR,OVC,0.00,WeatherDisplay:10.37,2013-11-11 03:55:00,
2013-11-10 22:00:00,39.4,-54.1,30.17,SSW,202,4.9,6.9,1,0.00,CLR,OVC,0.00,WeatherDisplay:10.37,2013-11-11 04:00:00,
2013-11-10 22:05:00,39.6,-53.9,30.17,SSW,202,5.9,6.9,1,0.00,CLR,OVC,0.00,WeatherDisplay:10.37,2013-11-11 04:05:00,
2013-11-10 22:10:00,39.9,-53.7,30.16,South,180,5.4,8.1,1,0.00,CLR,OVC,0.00,WeatherDisplay:10.37,2013-11-11 04:10:00,
2013-11-10 22:15:00,39.9,-53.7,30.16,SSW,202,7.8,8.1,1,0.00,CLR,OVC,0.00,WeatherDisplay:10.37,2013-11-11 04:15:00,
2013-11-10 22:20:00,40.1,-53.6,30.16,SSW,202,5.6,8.1,1,0.00,CLR,OVC,0.00,WeatherDisplay:10.37,2013-11-11 04:20:00,
2013-11-10 22:25:00,40.3,-53.5,30.16,SSW,202,4.3,5.8,1,0.00,CLR,OVC,0.00,WeatherDisplay:10.37,2013-11-11 04:25:00,
2013-11-10 22:30:00,40.3,-53.5,30.16,SSW,202,6.9,6.9,1,0.00,CLR,OVC,0.00,WeatherDisplay:10.37,2013-11-11 04:30:00,
2013-11-10 22:35:00,40.3,-53.5,30.15,South,180,3.8,5.8,1,0.00,CLR,OVC,0.00,WeatherDisplay:10.37,2013-11-11 04:35:00,
2013-11-10 22:40:00,40.3,-53.5,30.15,SSW,202,6.7,6.9,1,0.00,CLR,OVC,0.00,WeatherDisplay:10.37,2013-11-11 04:40:00,
2013-11-10 22:45:00,40.3,-53.5,30.15,South,180,5.6,5.8,1,0.00,CLR,OVC,0.00,WeatherDisplay:10.37,2013-11-11 04:45:00,
2013-11-10 22:50:00,40.3,-53.5,30.15,SSW,202,6.9,8.1,1,0.00,CLR,OVC,0.00,WeatherDisplay:10.37,2013-11-11 04:50:00,
2013-11-10 22:55:00,40.1,-53.6,30.15,SSW,202,6.9,6.9,1,0.00,CLR,OVC,0.00,WeatherDisplay:10.37,2013-11-11 04:55:00,
2013-11-10 23:00:00,39.9,-53.7,30.15,South,180,4.0,5.8,1,0.00,CLR,OVC,0.00,WeatherDisplay:10.37,2013-11-11 05:00:00,
2013-11-10 23:01:00,39.9,-53.7,30.15,South,180,4.0,5.8,1,0.00,CLR,OVC,0.00,WeatherDisplay:10.37,2013-11-11 05:01:00,
2013-11-10 23:02:00,39.9,-53.7,30.15,SW,225,6.4,6.4,1,0.00,CLR,OVC,0.00,WeatherDisplay:10.37,2013-11-11 05:02:00,
2013-11-10 23:07:00,40.1,-53.6,30.15,SSW,202,5.4,6.9,1,0.00,CLR,OVC,0.00,WeatherDisplay:10.37,2013-11-11 05:07:00,
2013-11-10 23:12:00,40.3,-53.5,30.14,South,180,4.7,5.8,1,0.00,CLR,OVC,0.00,WeatherDisplay:10.37,2013-11-11 05:12:00,
2013-11-10 23:17:00,40.5,-53.4,30.13,SSW,202,4.5,6.9,1,0.00,CLR,OVC,0.00,WeatherDisplay:10.37,2013-11-11 05:17:00,
2013-11-10 23:22:00,40.5,-53.4,30.14,SSW,202,6.4,9.2,1,0.00,CLR,OVC,0.00,WeatherDisplay:10.37,2013-11-11 05:22:00,
2013-11-10 23:27:00,40.3,-53.5,30.13,South,180,7.4,7.4,1,0.00,CLR,OVC,0.00,WeatherDisplay:10.37,2013-11-11 05:27:00,
2013-11-10 23:32:00,40.3,-53.5,30.13,SSW,202,5.6,5.8,1,0.00,CLR,OVC,0.00,WeatherDisplay:10.37,2013-11-11 05:32:00,
2013-11-10 23:37:00,39.9,-53.7,30.12,SSW,202,5.4,5.8,1,0.00,CLR,OVC,0.00,WeatherDisplay:10.37,2013-11-11 05:37:00,
2013-11-10 23:42:00,39.6,-53.9,30.12,SSW,202,5.4,5.8,1,0.00,CLR,OVC,0.00,WeatherDisplay:10.37,2013-11-11 05:42:00,
2013-11-10 23:47:00,39.2,-54.2,30.12,SSW,202,5.4,5.8,1,0.00,CLR,OVC,0.00,WeatherDisplay:10.37,2013-11-11 05:47:00,
2013-11-10 23:52:00,39.2,-54.2,30.12,South,180,4.5,6.9,1,0.00,CLR,OVC,0.00,WeatherDisplay:10.37,2013-11-11 05:52:00,
2013-11-10 23:57:00,39.2,-54.2,30.13,SSW,202,5.9,5.9,1,0.00,CLR,OVC,0.00,WeatherDisplay:10.37,2013-11-11 05:57:00,